Time;durP1;ratioP1;P1;durP2;ratioP2;P2;SDS_P1;SDS_P2;PMS_P1;PMS_P2;Temp;Humidity;BMP_temperature;BMP_pressure;BME280_temperature;BME280_humidity;BME280_pressure;Samples;Min_cycle;Max_cycle;Signal;HPM_P1;HPM_P2
2023/03/11 00:01:47;;;;;;;;;;;;;;;0.64;95.15;100790.91;5043476;28;20354;-57
2023/03/11 00:04:13;;;;;;;;;;;;;;;0.58;95.37;100781.28;5042514;28;19958;-57
2023/03/11 00:06:38;;;;;;;;;;;;;;;0.52;94.99;100789.31;5041888;28;20027;-56
2023/03/11 00:09:04;;;;;;;;;;;;;;;0.48;95.21;100787.34;5027159;28;19921;-57
2023/03/11 00:11:29;;;;;;;;;;;;;;;0.46;95.14;100791.44;5045999;28;19924;-57
2023/03/11 00:13:54;;;;;;;;;;;;;;;0.42;95.17;100794.53;5049445;28;19920;-56
2023/03/11 00:16:19;;;;;;;;;;;;;;;0.39;95.39;100801.06;5045486;28;19932;-56
2023/03/11 00:18:45;;;;;;;;;;;;;;;0.32;95.54;100798.91;5047048;28;20336;-57
2023/03/11 00:21:15;;;;;;;;;;;;;;;0.28;96.11;100799.44;5048567;28;19921;-56
2023/03/11 00:23:40;;;;;;;;;;;;;;;0.24;95.45;100805.94;5043613;28;19921;-57
2023/03/11 00:26:05;;;;;;;;;;;;;;;0.18;96.07;100803.00;5048138;28;20405;-57
2023/03/11 00:28:31;;;;;;;;;;;;;;;0.13;96.52;100814.47;5041437;28;19927;-57
2023/03/11 00:30:56;;;;;;;;;;;;;;;0.09;97.02;100815.91;5048568;28;19924;-60
2023/03/11 00:33:21;;;;;;;;;;;;;;;0.04;97.22;100813.81;5048572;28;19975;-56
2023/03/11 00:35:46;;;;;;;;;;;;;;;-0.01;97.11;100816.91;5048312;28;20434;-57
2023/03/11 00:38:14;;;;;;;;;;;;;;;-0.03;97.06;100827.69;5050830;28;19928;-56
2023/03/11 00:40:39;;;;;;;;;;;;;;;-0.10;97.54;100826.38;5052195;28;19921;-57
2023/03/11 00:43:04;;;;;;;;;;;;;;;-0.13;97.76;100838.78;5050161;28;19916;-57
2023/03/11 00:45:30;;;;;;;;;;;;;;;-0.15;98.13;100839.47;5046766;28;19929;-56
2023/03/11 00:47:55;;;;;;;;;;;;;;;-0.20;98.01;100843.31;5029722;28;20071;-56
2023/03/11 00:50:22;;;;;;;;;;;;;;;-0.24;98.24;100843.88;5044143;28;19921;-62
2023/03/11 00:52:48;;;;;;;;;;;;;;;-0.28;98.17;100836.09;5046201;28;20054;-56
2023/03/11 00:55:15;;;;;;;;;;;;;;;-0.28;98.02;100837.75;5048133;28;20358;-57
2023/03/11 00:57:40;;;;;;;;;;;;;;;-0.30;97.89;100840.16;5045626;28;20408;-56
2023/03/11 01:00:10;;;;;;;;;;;;;;;-0.31;98.27;100842.56;5046382;28;19920;-57
2023/03/11 01:02:35;;;;;;;;;;;;;;;-0.34;98.32;100842.34;5048217;28;19963;-57
2023/03/11 01:05:00;;;;;;;;;;;;;;;-0.36;97.91;100842.25;5047855;28;19960;-57
2023/03/11 01:07:26;;;;;;;;;;;;;;;-0.37;98.22;100857.28;5047646;28;19921;-56
2023/03/11 01:09:51;;;;;;;;;;;;;;;-0.37;98.39;100857.28;5046966;28;20337;-57
2023/03/11 01:12:16;;;;;;;;;;;;;;;-0.39;98.37;100858.84;5043778;28;20364;-56
2023/03/11 01:14:42;;;;;;;;;;;;;;;-0.39;98.67;100858.84;5056806;28;20345;-56
2023/03/11 01:17:07;;;;;;;;;;;;;;;-0.38;98.76;100870.69;5047109;28;19952;-56
2023/03/11 01:19:32;;;;;;;;;;;;;;;-0.38;98.35;100868.16;5050735;28;19925;-57
2023/03/11 01:21:57;;;;;;;;;;;;;;;-0.38;98.75;100871.56;5048774;28;19927;-56
2023/03/11 01:24:23;;;;;;;;;;;;;;;-0.37;98.30;100872.44;5050865;28;19928;-57
2023/03/11 01:26:48;;;;;;;;;;;;;;;-0.37;98.29;100869.91;5051614;28;19995;-56
2023/03/11 01:29:13;;;;;;;;;;;;;;;-0.38;98.46;100875.75;5057841;28;19917;-56
2023/03/11 01:31:38;;;;;;;;;;;;;;;-0.40;98.13;100879.81;5050507;28;20370;-56
2023/03/11 01:34:04;;;;;;;;;;;;;;;-0.41;97.92;100888.16;5050505;28;20314;-57
2023/03/11 01:36:29;;;;;;;;;;;;;;;-0.44;98.51;100882.88;5050346;28;19925;-57
2023/03/11 01:38:54;;;;;;;;;;;;;;;-0.44;98.88;100871.13;5051728;28;19923;-56
2023/03/11 01:41:19;;;;;;;;;;;;;;;-0.43;99.15;100879.56;5050206;28;19921;-57
2023/03/11 01:43:44;;;;;;;;;;;;;;;-0.45;98.98;100873.56;5050031;28;19921;-57
2023/03/11 01:46:10;;;;;;;;;;;;;;;-0.45;99.30;100871.03;5046676;28;20293;-56
2023/03/11 01:48:37;;;;;;;;;;;;;;;-0.48;99.08;100883.44;5045781;28;19916;-56
2023/03/11 01:51:03;;;;;;;;;;;;;;;-0.50;99.04;100884.97;5032317;28;19925;-56
2023/03/11 01:53:28;;;;;;;;;;;;;;;-0.52;99.53;100889.91;5042268;28;19944;-56
2023/03/11 01:55:54;;;;;;;;;;;;;;;-0.54;99.33;100886.41;5043431;28;20019;-57
2023/03/11 01:58:22;;;;;;;;;;;;;;;-0.55;99.57;100880.47;5043557;28;20313;-57
2023/03/11 02:00:47;;;;;;;;;;;;;;;-0.56;99.50;100886.28;5040706;28;19920;-58
2023/03/11 02:03:35;;;;;;;;;;;;;;;-0.57;99.33;100883.66;5040738;28;19944;-58
2023/03/11 02:06:02;;;;;;;;;;;;;;;-0.60;99.59;100884.31;5032688;28;19928;-57
2023/03/11 02:08:28;;;;;;;;;;;;;;;-0.63;99.61;100884.06;5044004;28;20869;-58
2023/03/11 02:10:55;;;;;;;;;;;;;;;-0.64;99.90;100884.84;5042566;28;19927;-58
2023/03/11 02:13:21;;;;;;;;;;;;;;;-0.66;100.00;100883.88;5042771;28;20377;-58
2023/03/11 02:15:46;;;;;;;;;;;;;;;-0.66;100.00;100885.53;5026646;28;19929;-58
2023/03/11 02:18:17;;;;;;;;;;;;;;;-0.67;100.00;100887.13;5042094;28;20035;-58
2023/03/11 02:20:45;;;;;;;;;;;;;;;-0.67;100.00;100892.19;5043317;28;19924;-57
2023/03/11 02:23:13;;;;;;;;;;;;;;;-0.68;100.00;100895.47;5045933;28;20381;-58
2023/03/11 02:25:51;;;;;;;;;;;;;;;-0.71;100.00;100890.22;5043931;28;19929;-58
2023/03/11 02:28:18;;;;;;;;;;;;;;;-0.74;100.00;100891.63;5043938;28;19924;-58
2023/03/11 02:30:44;;;;;;;;;;;;;;;-0.77;100.00;100894.81;5043925;28;20400;-58
2023/03/11 02:33:10;;;;;;;;;;;;;;;-0.78;100.00;100890.56;5045905;28;20018;-58
2023/03/11 02:35:36;;;;;;;;;;;;;;;-0.79;100.00;100895.47;5043404;28;19997;-59
2023/03/11 02:38:01;;;;;;;;;;;;;;;-0.80;100.00;100899.63;5027411;28;20397;-58
2023/03/11 02:40:28;;;;;;;;;;;;;;;-0.79;100.00;100886.25;5045359;28;19923;-57
2023/03/11 02:42:56;;;;;;;;;;;;;;;-0.80;100.00;100884.50;5046349;28;19964;-57
2023/03/11 02:45:23;;;;;;;;;;;;;;;-0.81;100.00;100885.25;5043546;28;19916;-57
2023/03/11 02:47:49;;;;;;;;;;;;;;;-0.83;100.00;100886.81;5044659;28;19952;-57
2023/03/11 02:50:15;;;;;;;;;;;;;;;-0.83;100.00;100890.19;5045609;28;20017;-57
2023/03/11 02:52:40;;;;;;;;;;;;;;;-0.85;100.00;100890.84;5042939;28;19963;-58
2023/03/11 02:55:06;;;;;;;;;;;;;;;-0.85;100.00;100890.84;5044860;28;19921;-58
2023/03/11 02:57:31;;;;;;;;;;;;;;;-0.85;100.00;100884.16;5044842;28;19940;-58
2023/03/11 02:59:58;;;;;;;;;;;;;;;-0.87;100.00;100887.34;5047138;28;19927;-57
2023/03/11 03:02:24;;;;;;;;;;;;;;;-0.89;100.00;100889.75;5049861;28;19987;-58
2023/03/11 03:04:49;;;;;;;;;;;;;;;-0.91;100.00;100891.28;5046640;28;20377;-58
2023/03/11 03:07:14;;;;;;;;;;;;;;;-0.93;100.00;100887.75;5046911;28;20267;-58
2023/03/11 03:09:39;;;;;;;;;;;;;;;-0.94;100.00;100891.06;5046776;28;20129;-58
2023/03/11 03:12:05;;;;;;;;;;;;;;;-0.96;100.00;100897.63;5047725;28;20011;-58
2023/03/11 03:14:30;;;;;;;;;;;;;;;-0.97;100.00;100894.97;5045130;28;19991;-58
2023/03/11 03:16:56;;;;;;;;;;;;;;;-0.99;100.00;100910.03;5047313;28;20079;-58
2023/03/11 03:19:21;;;;;;;;;;;;;;;-1.00;100.00;100913.31;5047025;28;19973;-58
2023/03/11 03:21:46;;;;;;;;;;;;;;;-0.99;100.00;100919.25;5050611;28;19984;-59
2023/03/11 03:24:11;;;;;;;;;;;;;;;-0.99;100.00;100927.69;5048401;28;19940;-58
2023/03/11 03:26:37;;;;;;;;;;;;;;;-0.95;100.00;100933.84;5048575;28;20358;-58
2023/03/11 03:29:03;;;;;;;;;;;;;;;-0.95;100.00;100931.34;5047225;28;19917;-58
2023/03/11 03:31:28;;;;;;;;;;;;;;;-0.95;100.00;100936.38;5043568;28;20086;-58
2023/03/11 03:33:53;;;;;;;;;;;;;;;-0.95;100.00;100937.25;5049040;28;19920;-58
2023/03/11 03:36:18;;;;;;;;;;;;;;;-0.93;100.00;100944.94;5048320;28;19916;-59
2023/03/11 03:38:44;;;;;;;;;;;;;;;-0.89;100.00;100944.41;5047124;28;19924;-58
2023/03/11 03:41:11;;;;;;;;;;;;;;;-0.85;100.00;100946.38;5048655;28;20003;-64
2023/03/11 03:43:37;;;;;;;;;;;;;;;-0.80;100.00;100947.59;5048232;28;20361;-58
2023/03/11 03:46:03;;;;;;;;;;;;;;;-0.74;100.00;100955.63;5050225;28;19917;-57
2023/03/11 03:48:28;;;;;;;;;;;;;;;-0.71;100.00;100955.88;5047602;28;20348;-58
2023/03/11 03:50:54;;;;;;;;;;;;;;;-0.68;100.00;100956.09;5044272;28;20060;-58
2023/03/11 03:53:19;;;;;;;;;;;;;;;-0.67;100.00;100952.78;5048321;28;20317;-58
2023/03/11 03:55:45;;;;;;;;;;;;;;;-0.66;100.00;100959.63;5048749;28;19921;-58
2023/03/11 03:58:10;;;;;;;;;;;;;;;-0.67;100.00;100965.41;5046664;28;20369;-59
2023/03/11 04:00:35;;;;;;;;;;;;;;;-0.68;100.00;100965.31;5047334;28;19924;-58
2023/03/11 04:03:00;;;;;;;;;;;;;;;-0.69;100.00;100973.66;5048747;28;19931;-58
2023/03/11 04:05:26;;;;;;;;;;;;;;;-0.73;100.00;100967.50;5047951;28;19960;-58
2023/03/11 04:07:52;;;;;;;;;;;;;;;-0.74;100.00;100960.69;5047631;28;19924;-59
2023/03/11 04:10:17;;;;;;;;;;;;;;;-0.77;100.00;100963.00;5046539;28;20507;-58
2023/03/11 04:12:42;;;;;;;;;;;;;;;-0.77;100.00;100964.66;5053225;28;19929;-58
2023/03/11 04:15:08;;;;;;;;;;;;;;;-0.80;100.00;100980.44;5052264;28;19921;-58
2023/03/11 04:17:33;;;;;;;;;;;;;;;-0.83;100.00;100973.50;5048913;28;19933;-58
2023/03/11 04:19:58;;;;;;;;;;;;;;;-0.83;100.00;100970.13;5049326;28;19940;-58
2023/03/11 04:22:24;;;;;;;;;;;;;;;-0.85;100.00;100969.09;5050934;28;19921;-60
2023/03/11 04:24:49;;;;;;;;;;;;;;;-0.87;100.00;100974.03;5055875;28;19927;-58
2023/03/11 04:27:14;;;;;;;;;;;;;;;-0.88;100.00;100981.50;5053253;28;19925;-58
2023/03/11 04:29:39;;;;;;;;;;;;;;;-0.90;100.00;100988.09;5051392;28;19925;-58
2023/03/11 04:32:05;;;;;;;;;;;;;;;-0.93;100.00;100983.69;5050105;28;19931;-58
2023/03/11 04:34:30;;;;;;;;;;;;;;;-0.96;99.92;100983.47;5048542;28;19946;-58
2023/03/11 04:36:55;;;;;;;;;;;;;;;-1.01;100.00;100988.91;5053565;28;20011;-58
2023/03/11 04:39:20;;;;;;;;;;;;;;;-1.05;100.00;100987.78;5052735;28;20013;-58
2023/03/11 04:41:46;;;;;;;;;;;;;;;-1.08;100.00;100978.34;5049164;28;19978;-58
2023/03/11 04:44:11;;;;;;;;;;;;;;;-1.11;100.00;100980.63;5051017;28;20400;-58
2023/03/11 04:46:36;;;;;;;;;;;;;;;-1.12;100.00;100975.47;5049303;28;20346;-58
2023/03/11 04:49:01;;;;;;;;;;;;;;;-1.14;100.00;100979.53;5052721;28;19917;-59
2023/03/11 04:51:27;;;;;;;;;;;;;;;-1.17;100.00;100984.34;5047124;28;19967;-58
2023/03/11 04:53:52;;;;;;;;;;;;;;;-1.18;100.00;100987.63;5052123;28;19920;-58
2023/03/11 04:56:17;;;;;;;;;;;;;;;-1.19;100.00;100985.88;5050244;28;19917;-58
2023/03/11 04:58:42;;;;;;;;;;;;;;;-1.23;100.00;100986.38;5050665;28;19921;-58
2023/03/11 05:01:08;;;;;;;;;;;;;;;-1.25;100.00;100987.94;5050441;28;20008;-58
2023/03/11 05:03:33;;;;;;;;;;;;;;;-1.28;100.00;100988.56;5047970;28;20377;-58
2023/03/11 05:05:59;;;;;;;;;;;;;;;-1.30;100.00;100984.16;5050073;28;19921;-58
2023/03/11 05:08:24;;;;;;;;;;;;;;;-1.32;100.00;100984.06;5053651;28;20320;-58
2023/03/11 05:10:50;;;;;;;;;;;;;;;-1.33;100.00;100983.91;5051982;28;20329;-58
2023/03/11 05:13:15;;;;;;;;;;;;;;;-1.37;100.00;101000.47;5048190;28;20343;-56
2023/03/11 05:15:41;;;;;;;;;;;;;;;-1.40;100.00;100988.50;5049187;28;19928;-56
2023/03/11 05:18:06;;;;;;;;;;;;;;;-1.42;100.00;101002.63;5036856;28;19927;-56
2023/03/11 05:20:32;;;;;;;;;;;;;;;-1.44;100.00;101004.16;5051011;28;19921;-57
2023/03/11 05:22:57;;;;;;;;;;;;;;;-1.47;100.00;101000.50;5051379;28;20377;-56
2023/03/11 05:25:22;;;;;;;;;;;;;;;-1.48;100.00;101012.25;5049378;28;20271;-57
2023/03/11 05:27:48;;;;;;;;;;;;;;;-1.49;100.00;101007.09;5052709;28;19966;-57
2023/03/11 05:30:14;;;;;;;;;;;;;;;-1.53;100.00;101012.63;5050513;28;19936;-56
2023/03/11 05:32:39;;;;;;;;;;;;;;;-1.55;100.00;101004.09;5050228;28;20370;-56
2023/03/11 05:35:04;;;;;;;;;;;;;;;-1.57;100.00;101013.19;5054467;28;19943;-56
2023/03/11 05:37:31;;;;;;;;;;;;;;;-1.58;100.00;101003.84;5046679;28;19925;-58
2023/03/11 05:39:56;;;;;;;;;;;;;;;-1.58;100.00;101017.31;5044348;28;19920;-57
2023/03/11 05:42:21;;;;;;;;;;;;;;;-1.57;100.00;101026.66;5043510;28;19975;-57
2023/03/11 05:44:47;;;;;;;;;;;;;;;-1.58;100.00;101024.88;5042478;28;19924;-58
2023/03/11 05:47:12;;;;;;;;;;;;;;;-1.57;100.00;101033.34;5043412;28;20370;-57
2023/03/11 05:49:37;;;;;;;;;;;;;;;-1.58;100.00;101031.56;5045795;28;19932;-57
2023/03/11 05:52:03;;;;;;;;;;;;;;;-1.61;100.00;101039.78;5045416;28;19960;-55
2023/03/11 05:54:28;;;;;;;;;;;;;;;-1.63;100.00;101041.31;5046634;28;19917;-57
2023/03/11 05:56:54;;;;;;;;;;;;;;;-1.67;100.00;101039.31;5042052;28;20302;-57
2023/03/11 05:59:19;;;;;;;;;;;;;;;-1.67;100.00;101042.69;5047824;28;19943;-57
2023/03/11 06:01:45;;;;;;;;;;;;;;;-1.70;100.00;101039.94;5046760;28;19917;-56
2023/03/11 06:04:10;;;;;;;;;;;;;;;-1.71;100.00;101048.25;5045903;28;19931;-57
2023/03/11 06:06:37;;;;;;;;;;;;;;;-1.72;100.00;101038.94;5042324;28;20094;-56
2023/03/11 06:09:02;;;;;;;;;;;;;;;-1.72;100.00;101046.50;5044572;28;19928;-56
2023/03/11 06:11:28;;;;;;;;;;;;;;;-1.73;100.00;101052.31;5046019;28;20301;-57
2023/03/11 06:13:54;;;;;;;;;;;;;;;-1.74;100.00;101065.66;5045289;28;19929;-57
2023/03/11 06:16:20;;;;;;;;;;;;;;;-1.74;100.00;101069.84;5043236;28;19921;-57
2023/03/11 06:18:45;;;;;;;;;;;;;;;-1.75;100.00;101065.56;5043644;28;19963;-57
2023/03/11 06:21:15;;;;;;;;;;;;;;;-1.76;100.00;101058.72;5045696;28;19931;-57
2023/03/11 06:23:41;;;;;;;;;;;;;;;-1.75;100.00;101063.03;5048764;28;19921;-57
2023/03/11 06:26:06;;;;;;;;;;;;;;;-1.77;100.00;101070.44;5049979;28;19999;-58
2023/03/11 06:28:31;;;;;;;;;;;;;;;-1.77;100.00;101072.97;5049490;28;20607;-57
2023/03/11 06:31:05;;;;;;;;;;;;;;;-1.77;100.00;101074.59;5054374;28;19928;-58
2023/03/11 06:33:30;;;;;;;;;;;;;;;-1.74;100.00;101079.91;5051456;28;19974;-57
2023/03/11 06:35:57;;;;;;;;;;;;;;;-1.72;100.00;101081.78;5048054;28;19916;-60
2023/03/11 06:38:22;;;;;;;;;;;;;;;-1.72;100.00;101080.91;5051537;28;20388;-57
2023/03/11 06:40:47;;;;;;;;;;;;;;;-1.70;100.00;101089.47;5049498;28;19925;-57
2023/03/11 06:43:13;;;;;;;;;;;;;;;-1.67;100.00;101090.59;5031235;28;19950;-57
2023/03/11 06:45:38;;;;;;;;;;;;;;;-1.62;100.00;101093.50;5048871;28;19920;-57
2023/03/11 06:48:03;;;;;;;;;;;;;;;-1.60;100.00;101088.56;5051883;28;19921;-56
2023/03/11 06:50:29;;;;;;;;;;;;;;;-1.57;100.00;101096.41;5047739;28;19927;-56
2023/03/11 06:52:54;;;;;;;;;;;;;;;-1.52;100.00;101106.06;5052224;28;19978;-57
2023/03/11 06:55:20;;;;;;;;;;;;;;;-1.47;100.00;101111.47;5052534;28;19928;-56
2023/03/11 06:57:45;;;;;;;;;;;;;;;-1.40;100.00;101116.25;5048343;28;19921;-56
2023/03/11 07:00:11;;;;;;;;;;;;;;;-1.32;100.00;101121.94;5045497;28;20547;-57
2023/03/11 07:02:36;;;;;;;;;;;;;;;-1.26;100.00;101130.84;5053171;28;20335;-57
2023/03/11 07:05:01;;;;;;;;;;;;;;;-1.21;100.00;101126.19;5048192;28;19916;-57
2023/03/11 07:07:27;;;;;;;;;;;;;;;-1.15;100.00;101139.28;5050299;28;21399;-56
2023/03/11 07:09:54;;;;;;;;;;;;;;;-1.10;100.00;101143.91;5049702;28;19928;-56
2023/03/11 07:12:21;;;;;;;;;;;;;;;-1.04;100.00;101145.16;5050550;28;20404;-58
2023/03/11 07:14:47;;;;;;;;;;;;;;;-1.00;100.00;101143.00;5053976;28;19921;-57
2023/03/11 07:17:12;;;;;;;;;;;;;;;-0.95;100.00;101136.66;5048190;28;20256;-56
2023/03/11 07:19:37;;;;;;;;;;;;;;;-0.89;100.00;101134.63;5034864;28;20069;-56
2023/03/11 07:22:02;;;;;;;;;;;;;;;-0.83;100.00;101140.16;5048640;28;19971;-62
2023/03/11 07:24:28;;;;;;;;;;;;;;;-0.76;100.00;101135.56;5049686;28;20337;-64
2023/03/11 07:26:53;;;;;;;;;;;;;;;-0.70;100.00;101139.44;5051442;28;19921;-57
2023/03/11 07:29:19;;;;;;;;;;;;;;;-0.62;100.00;101145.97;5030017;28;20382;-57
2023/03/11 07:31:44;;;;;;;;;;;;;;;-0.53;100.00;101143.28;5047122;28;19947;-57
2023/03/11 07:34:10;;;;;;;;;;;;;;;-0.46;100.00;101149.66;5045354;28;19932;-57
2023/03/11 07:36:37;;;;;;;;;;;;;;;-0.40;100.00;101145.97;5046243;28;19916;-57
2023/03/11 07:39:04;;;;;;;;;;;;;;;-0.34;100.00;101154.00;5047766;28;19917;-59
2023/03/11 07:41:31;;;;;;;;;;;;;;;-0.27;100.00;101153.69;5045590;28;19917;-57
2023/03/11 07:43:57;;;;;;;;;;;;;;;-0.19;100.00;101155.91;5043568;28;19978;-57
2023/03/11 07:46:23;;;;;;;;;;;;;;;-0.11;100.00;101159.94;5045582;28;19916;-57
2023/03/11 07:48:49;;;;;;;;;;;;;;;-0.02;100.00;101156.41;5047168;28;20015;-57
2023/03/11 07:51:16;;;;;;;;;;;;;;;0.05;100.00;101162.81;5048569;28;20370;-59
2023/03/11 07:53:41;;;;;;;;;;;;;;;0.11;100.00;101169.97;5053162;28;20009;-59
2023/03/11 07:56:08;;;;;;;;;;;;;;;0.18;100.00;101174.72;5049213;28;20514;-58
2023/03/11 07:58:33;;;;;;;;;;;;;;;0.28;99.82;101176.28;5055035;28;20407;-57
2023/03/11 08:01:06;;;;;;;;;;;;;;;0.38;99.24;101187.22;5051692;28;19928;-57
2023/03/11 08:03:34;;;;;;;;;;;;;;;0.50;99.18;101187.22;5056715;28;21710;-56
2023/03/11 08:06:00;;;;;;;;;;;;;;;0.59;97.91;101184.47;5048017;28;21540;-57
2023/03/11 08:08:26;;;;;;;;;;;;;;;0.68;97.42;101187.69;5056565;28;19997;-57
2023/03/11 08:10:51;;;;;;;;;;;;;;;0.77;97.33;101189.22;5049540;28;20486;-57
2023/03/11 08:13:16;;;;;;;;;;;;;;;0.92;96.96;101186.91;5052855;28;19932;-57
2023/03/11 08:15:41;;;;;;;;;;;;;;;1.05;96.85;101183.59;5051539;28;19925;-57
2023/03/11 08:18:07;;;;;;;;;;;;;;;1.20;97.40;101188.88;5047734;28;19928;-57
2023/03/11 08:20:32;;;;;;;;;;;;;;;1.38;95.29;101192.69;5050054;28;20011;-58
2023/03/11 08:22:57;;;;;;;;;;;;;;;1.61;92.11;101189.22;5032647;28;20416;-58
2023/03/11 08:25:23;;;;;;;;;;;;;;;2.14;91.75;101186.91;5052487;28;20007;-57
2023/03/11 08:27:48;;;;;;;;;;;;;;;5.31;90.54;101177.28;5049348;28;19917;-57
2023/03/11 08:30:13;;;;;;;;;;;;;;;9.03;77.15;101176.81;5052114;28;19976;-58
2023/03/11 08:32:39;;;;;;;;;;;;;;;12.54;64.22;101172.75;5056525;28;20070;-57
2023/03/11 08:35:04;;;;;;;;;;;;;;;15.02;51.30;101168.28;5055963;28;19917;-57
2023/03/11 08:37:30;;;;;;;;;;;;;;;16.60;45.61;101168.38;5050351;28;19932;-58
2023/03/11 08:39:55;;;;;;;;;;;;;;;17.79;41.10;101183.03;5058158;28;19916;-58
2023/03/11 08:42:21;;;;;;;;;;;;;;;18.85;36.94;101176.22;5054727;28;20355;-57
2023/03/11 08:44:46;;;;;;;;;;;;;;;19.47;36.43;101177.81;5054353;28;19927;-57
2023/03/11 08:47:12;;;;;;;;;;;;;;;20.46;30.89;101179.97;5034567;28;19920;-58
2023/03/11 08:49:37;;;;;;;;;;;;;;;21.42;32.25;101181.69;5055857;28;19943;-58
2023/03/11 08:52:03;;;;;;;;;;;;;;;22.45;30.47;101183.81;5052194;28;19921;-58
2023/03/11 08:54:28;;;;;;;;;;;;;;;23.31;26.78;101177.06;5054803;28;20320;-58
2023/03/11 08:56:54;;;;;;;;;;;;;;;23.98;25.87;101185.31;5053049;28;20388;-58
2023/03/11 08:59:19;;;;;;;;;;;;;;;24.67;24.84;101187.19;5052479;28;19916;-58
2023/03/11 09:01:45;;;;;;;;;;;;;;;24.71;24.66;101193.25;5054330;28;19929;-59
2023/03/11 09:04:11;;;;;;;;;;;;;;;24.48;24.72;101192.06;5052788;28;20340;-58
2023/03/11 09:06:36;;;;;;;;;;;;;;;23.98;23.75;101191.44;5049758;28;19929;-58
2023/03/11 09:09:01;;;;;;;;;;;;;;;23.69;23.17;101185.94;5047697;28;19932;-59
2023/03/11 09:11:27;;;;;;;;;;;;;;;24.04;24.26;101183.41;5051623;28;20013;-58
2023/03/11 09:13:52;;;;;;;;;;;;;;;24.40;22.42;101187.88;5048988;28;20321;-59
2023/03/11 09:16:19;;;;;;;;;;;;;;;24.30;21.54;101184.56;5050925;28;19917;-58
2023/03/11 09:18:48;;;;;;;;;;;;;;;23.42;23.39;101182.97;5048699;28;20361;-66
2023/03/11 09:21:13;;;;;;;;;;;;;;;22.23;24.29;101197.25;5050824;28;20374;-58
2023/03/11 09:23:39;;;;;;;;;;;;;;;20.99;24.31;101190.81;5043081;28;19931;-58
2023/03/11 09:26:04;;;;;;;;;;;;;;;19.73;26.23;101196.91;5044431;28;19921;-58
2023/03/11 09:28:29;;;;;;;;;;;;;;;18.60;26.12;101206.59;5032124;28;19948;-58
2023/03/11 09:30:55;;;;;;;;;;;;;;;17.37;26.53;101206.19;5046029;28;19943;-58
2023/03/11 09:33:20;;;;;;;;;;;;;;;16.22;29.51;101204.38;5047496;28;19959;-57
2023/03/11 09:35:45;;;;;;;;;;;;;;;15.87;30.84;101203.09;5045915;28;19925;-60
2023/03/11 09:38:11;;;;;;;;;;;;;;;15.71;30.45;101207.22;5047032;28;19928;-58
2023/03/11 09:40:42;;;;;;;;;;;;;;;15.62;29.50;101208.00;5044206;28;19984;-58
2023/03/11 09:43:25;;;;;;;;;;;;;;;15.52;30.01;101211.28;5046609;28;19917;-58
2023/03/11 09:46:09;;;;;;;;;;;;;;;14.98;31.56;101215.66;5045913;28;19917;-57
2023/03/11 09:48:45;;;;;;;;;;;;;;;14.29;31.71;101216.19;5046085;28;19986;-58
2023/03/11 09:51:14;;;;;;;;;;;;;;;13.61;31.68;101211.41;5044233;28;19931;-63
2023/03/11 09:53:41;;;;;;;;;;;;;;;13.06;34.62;101210.16;5046576;28;19925;-58
2023/03/11 09:56:09;;;;;;;;;;;;;;;12.63;34.27;101207.38;5044771;28;20007;-58
2023/03/11 09:58:34;;;;;;;;;;;;;;;12.64;34.53;101207.41;5045920;28;20439;-58
2023/03/11 10:01:00;;;;;;;;;;;;;;;12.95;35.41;101206.44;5044283;28;19921;-58
2023/03/11 10:03:27;;;;;;;;;;;;;;;13.18;34.75;101222.47;5043847;28;19928;-58
2023/03/11 10:05:54;;;;;;;;;;;;;;;12.89;35.90;101220.06;5047119;28;19955;-58
2023/03/11 10:08:38;;;;;;;;;;;;;;;12.30;36.31;101214.25;5048089;28;19962;-58
2023/03/11 10:11:19;;;;;;;;;;;;;;;11.54;37.18;101220.69;5046835;28;19978;-58
2023/03/11 10:13:50;;;;;;;;;;;;;;;10.92;38.45;101218.72;5046868;28;19944;-58
2023/03/11 10:16:23;;;;;;;;;;;;;;;10.60;39.10;101221.13;5044164;28;19921;-58
2023/03/11 10:18:56;;;;;;;;;;;;;;;10.84;40.26;101223.63;5046266;28;19917;-57
2023/03/11 10:21:34;;;;;;;;;;;;;;;11.26;39.53;101220.66;5043108;28;20285;-58
2023/03/11 10:23:59;;;;;;;;;;;;;;;11.42;37.70;101224.59;5043849;28;20337;-57
2023/03/11 10:26:40;;;;;;;;;;;;;;;11.48;38.36;101224.78;5044526;28;19924;-58
2023/03/11 10:29:05;;;;;;;;;;;;;;;11.69;38.10;101222.81;5044984;28;20190;-58
2023/03/11 10:31:37;;;;;;;;;;;;;;;11.85;37.67;101229.34;5044311;28;19990;-58
2023/03/11 10:34:14;;;;;;;;;;;;;;;11.77;37.40;101238.53;5042951;28;19917;-58
2023/03/11 10:36:51;;;;;;;;;;;;;;;11.61;36.97;101237.19;5045367;28;19939;-58
2023/03/11 10:39:18;;;;;;;;;;;;;;;11.97;37.70;101233.97;5044988;28;19975;-58
2023/03/11 10:41:48;;;;;;;;;;;;;;;13.14;35.57;101228.38;5044602;28;20292;-58
2023/03/11 10:44:20;;;;;;;;;;;;;;;12.99;34.13;101236.66;5044077;28;19916;-58
2023/03/11 10:46:45;;;;;;;;;;;;;;;12.61;35.56;101243.44;5045355;28;19947;-58
2023/03/11 10:49:13;;;;;;;;;;;;;;;12.78;34.17;101238.69;5044543;28;19924;-58
2023/03/11 10:51:38;;;;;;;;;;;;;;;12.73;33.81;101237.72;5042539;28;20007;-57
2023/03/11 10:54:04;;;;;;;;;;;;;;;12.05;35.78;101238.50;5045557;28;19917;-58
2023/03/11 10:56:30;;;;;;;;;;;;;;;12.29;36.10;101233.13;5043864;28;19925;-58
2023/03/11 10:58:56;;;;;;;;;;;;;;;13.74;37.16;101229.75;5043010;28;19971;-58
2023/03/11 11:01:22;;;;;;;;;;;;;;;14.66;34.11;101232.41;5042562;28;19924;-57
2023/03/11 11:03:48;;;;;;;;;;;;;;;15.49;32.80;101227.66;5045729;28;19921;-57
2023/03/11 11:06:27;;;;;;;;;;;;;;;15.56;32.95;101221.72;5043760;28;19962;-57
2023/03/11 11:09:12;;;;;;;;;;;;;;;15.21;33.79;101228.13;5043528;28;19923;-57
2023/03/11 11:11:38;;;;;;;;;;;;;;;14.02;31.98;101233.78;5045964;28;20000;-58
2023/03/11 11:14:03;;;;;;;;;;;;;;;12.81;35.41;101228.47;5048499;28;20008;-58
2023/03/11 11:16:29;;;;;;;;;;;;;;;11.77;36.96;101234.25;5043401;28;19920;-58
2023/03/11 11:18:57;;;;;;;;;;;;;;;10.98;36.43;101242.97;5043208;28;20017;-59
2023/03/11 11:21:38;;;;;;;;;;;;;;;10.39;37.18;101240.97;5043796;28;19921;-61
2023/03/11 11:24:08;;;;;;;;;;;;;;;9.94;37.63;101246.16;5045873;28;19924;-61
2023/03/11 11:26:33;;;;;;;;;;;;;;;9.54;38.45;101244.69;5046388;28;20020;-60
2023/03/11 11:29:14;;;;;;;;;;;;;;;9.22;39.48;101242.53;5046552;28;20019;-61
2023/03/11 11:31:44;;;;;;;;;;;;;;;9.00;38.42;101248.53;5048005;28;20284;-59
2023/03/11 11:34:28;;;;;;;;;;;;;;;8.86;40.67;101245.41;5051343;28;19916;-59
2023/03/11 11:36:56;;;;;;;;;;;;;;;8.64;42.17;101247.88;5044694;28;19928;-58
2023/03/11 11:39:23;;;;;;;;;;;;;;;8.45;42.57;101242.00;5042794;28;19921;-58
2023/03/11 11:41:48;;;;;;;;;;;;;;;8.32;42.04;101239.69;5048702;28;19912;-59
2023/03/11 11:44:16;;;;;;;;;;;;;;;8.19;41.30;101242.50;5047939;28;20073;-59
2023/03/11 11:46:46;;;;;;;;;;;;;;;8.06;41.52;101247.09;5049929;28;20381;-58
2023/03/11 11:49:11;;;;;;;;;;;;;;;7.98;42.60;101247.56;5044758;28;19917;-59
2023/03/11 11:51:49;;;;;;;;;;;;;;;8.04;42.58;101242.72;5046937;28;19916;-59
2023/03/11 11:54:27;;;;;;;;;;;;;;;8.03;43.31;101239.28;5048054;28;19950;-58
2023/03/11 11:56:54;;;;;;;;;;;;;;;8.10;44.81;101237.88;5047454;28;19921;-57
2023/03/11 11:59:20;;;;;;;;;;;;;;;8.12;43.54;101237.94;5044443;28;20055;-57
2023/03/11 12:01:51;;;;;;;;;;;;;;;8.11;43.34;101236.19;5050190;28;20306;-58
2023/03/11 12:04:36;;;;;;;;;;;;;;;8.05;44.66;101241.91;5047881;28;19970;-57
2023/03/11 12:07:23;;;;;;;;;;;;;;;8.07;44.01;101240.31;5049039;28;19913;-57
2023/03/11 12:10:07;;;;;;;;;;;;;;;7.97;43.83;101231.34;5044280;28;19920;-58
2023/03/11 12:12:39;;;;;;;;;;;;;;;7.91;43.31;101233.63;5050085;28;19932;-57
2023/03/11 12:15:06;;;;;;;;;;;;;;;7.85;43.02;101228.22;5048099;28;19971;-57
2023/03/11 12:17:34;;;;;;;;;;;;;;;7.73;42.77;101223.44;5047072;28;20009;-57
2023/03/11 12:20:05;;;;;;;;;;;;;;;7.66;44.83;101231.63;5043975;28;19967;-57
2023/03/11 12:22:30;;;;;;;;;;;;;;;7.71;43.78;101234.41;5050039;28;19963;-57
2023/03/11 12:25:04;;;;;;;;;;;;;;;7.71;44.31;101244.66;5048481;28;19916;-59
2023/03/11 12:27:42;;;;;;;;;;;;;;;7.75;44.73;101237.16;5047118;28;19917;-58
2023/03/11 12:30:16;;;;;;;;;;;;;;;8.06;45.77;101243.66;5044891;28;19925;-58
2023/03/11 12:32:46;;;;;;;;;;;;;;;8.36;45.41;101241.59;5047637;28;20400;-57